Kezdőlap
METAR-TAF:

METAR-TAF

Repülőterek :

Xi'an, Kína

földrajzi szélesség: 34-26N, földrajzi hosszúság: 108-45E, magasság: 479 m

Jelenlegi meteorológiai megfigyelések

A jelentés 47 perccel ezelõtt készült, 04:00 UTC
Déli szél 4 kt, dél-délkeleti és dél-délnyugati között változik
Hőmérséklet 4°C
Páratartalom 30%
Légköri nyomás 1037 hPa
Látótávolság: 8000 m

METAR: ZLXY 200400Z 19002MPS 150V210 8000 NSC 04/M12 Q1037 NOSIG

Idő: 12:47 (04:47 UTC)

Előrejelzés

A jelentés 9 órával és 17 perccel ezelõtt készült, 19:30 UTC
Az előrejelzés 20-én 00 óra UTC és 20-én 24 óra UTC között érvényes
Nyugat-délnyugati szél 6 kt
Látótávolság: 3000 m
Száraz légköri homály

TAF: ZLXY 191930Z 2000/2024 24003MPS 3000 HZ NSC TX06/2007Z TNM07/23Z

Meteorológiai megfigyelések és előrejelzések több, mint 4000 repülőtéren (METAR és TAF jelentéseket).

A térképen piros és sárga pontok jelzik az elérhető meteorológiai állomásokat.

Mozgassa az egeret a pont fölött, hogy megjelenjen az állomás neve.

Azután kattintson az időjárási megfigyelések és előrejelzések megtekintéséhez.

A térkép megváltoztatása: kattintson a fekete keresztel jelölt zöld gombra ráközelítéshez, a vonallal jelölt zöld gombra távolításhoz, vagy a zöld nyilakra a szomszédos térképek eléréséhez.


METAR-TAF: